createdAt,value
2023-03-21T00:01:06.668Z,101034.44
2023-03-21T00:03:38.116Z,101015.16
2023-03-21T00:06:11.335Z,101030.78
2023-03-21T00:08:42.854Z,101025.06
2023-03-21T00:11:16.832Z,101024.91
2023-03-21T00:13:47.367Z,101023.75
2023-03-21T00:16:29.502Z,101018.31
2023-03-21T00:19:03.463Z,101021.00
2023-03-21T00:21:51.933Z,101013.75
2023-03-21T00:24:29.219Z,101011.09
2023-03-21T00:27:26.875Z,101011.09
2023-03-21T00:29:53.677Z,101006.47
2023-03-21T00:32:25.154Z,101005.63
2023-03-21T00:35:16.455Z,100996.28
2023-03-21T00:37:47.159Z,101008.59
2023-03-21T00:40:27.994Z,101003.56
2023-03-21T00:43:06.493Z,101007.88
2023-03-21T00:45:37.462Z,101001.94
2023-03-21T00:48:08.387Z,101001.22
2023-03-21T00:50:39.569Z,100997.09
2023-03-21T00:53:10.437Z,100993.84
2023-03-21T00:55:41.300Z,100988.84
2023-03-21T00:58:15.501Z,100985.28
2023-03-21T01:00:47.085Z,100987.38
2023-03-21T01:03:24.893Z,100982.50
2023-03-21T01:06:07.999Z,100983.22
2023-03-21T01:08:51.817Z,100985.91
2023-03-21T01:11:25.701Z,100979.41
2023-03-21T01:14:11.197Z,100982.25
2023-03-21T01:16:46.112Z,100982.41
2023-03-21T01:19:29.211Z,100978.28
2023-03-21T01:22:03.861Z,100979.75
2023-03-21T01:24:37.675Z,100957.47
2023-03-21T01:27:08.439Z,100975.13
2023-03-21T01:29:41.764Z,100973.75
2023-03-21T01:32:12.354Z,100969.88
2023-03-21T01:34:43.132Z,100974.63
2023-03-21T01:37:14.605Z,100958.47
2023-03-21T01:39:50.580Z,100971.25
2023-03-21T01:42:21.075Z,100954.50
2023-03-21T01:45:03.253Z,100970.66
2023-03-21T01:47:42.224Z,100965.22
2023-03-21T01:50:24.218Z,100962.00
2023-03-21T01:53:04.805Z,100966.69
2023-03-21T01:55:39.459Z,100956.59
2023-03-21T01:58:18.443Z,100959.31
2023-03-21T02:01:12.841Z,100963.06
2023-03-21T02:03:53.136Z,100957.13
2023-03-21T02:06:58.613Z,100952.09
2023-03-21T02:09:44.854Z,100957.28
2023-03-21T02:12:20.005Z,100953.00
2023-03-21T02:14:52.969Z,100950.50
2023-03-21T02:17:38.969Z,100950.78
2023-03-21T02:20:46.562Z,100942.84
2023-03-21T02:24:03.303Z,100931.47
2023-03-21T02:27:06.687Z,100942.59
2023-03-21T02:30:29.415Z,100932.53
2023-03-21T02:33:26.088Z,100924.84
2023-03-21T02:36:18.779Z,100927.03
2023-03-21T02:38:58.939Z,100931.91
2023-03-21T02:41:40.312Z,100916.53
2023-03-21T02:44:20.072Z,100920.25
2023-03-21T02:47:03.176Z,100918.78
2023-03-21T02:49:43.168Z,100914.31
2023-03-21T02:52:35.425Z,100912.13
2023-03-21T02:55:16.678Z,100897.91
2023-03-21T02:57:54.391Z,100911.38
2023-03-21T03:00:27.490Z,100916.72
2023-03-21T03:03:08.829Z,100907.72
2023-03-21T03:05:46.893Z,100907.72
2023-03-21T03:08:41.207Z,100910.66
2023-03-21T03:11:28.849Z,100907.09
2023-03-21T03:14:38.480Z,100900.28
2023-03-21T03:17:21.966Z,100902.38
2023-03-21T03:20:15.587Z,100904.34
2023-03-21T03:22:56.765Z,100897.84
2023-03-21T03:25:42.016Z,100901.06
2023-03-21T03:28:21.563Z,100896.19
2023-03-21T03:31:08.094Z,100876.97
2023-03-21T03:33:49.576Z,100893.88
2023-03-21T03:36:31.693Z,100873.22
2023-03-21T03:39:10.507Z,100900.66
2023-03-21T03:42:10.058Z,100893.88
2023-03-21T03:44:55.066Z,100895.78
2023-03-21T03:47:36.327Z,100887.53
2023-03-21T03:50:16.504Z,100879.66
2023-03-21T03:52:57.069Z,100898.63
2023-03-21T03:55:34.548Z,100891.78
2023-03-21T03:58:22.874Z,100892.69
2023-03-21T04:00:59.321Z,100889.13
2023-03-21T04:03:39.197Z,100890.59
2023-03-21T04:06:17.381Z,100884.69
2023-03-21T04:08:48.121Z,100891.16
2023-03-21T04:11:19.219Z,100866.59
2023-03-21T04:13:55.217Z,100889.41
2023-03-21T04:16:33.341Z,100889.97
2023-03-21T04:19:05.095Z,100886.41
2023-03-21T04:21:36.659Z,100884.66
2023-03-21T04:24:08.802Z,100894.09
2023-03-21T04:26:39.733Z,100875.16
2023-03-21T04:29:41.708Z,100882.91
2023-03-21T04:32:34.065Z,100892.22
2023-03-21T04:35:14.098Z,100880.41
2023-03-21T04:37:45.267Z,100885.44
2023-03-21T04:40:20.361Z,100883.81
2023-03-21T04:42:52.081Z,100854.44
2023-03-21T04:45:25.113Z,100878.94
2023-03-21T04:47:58.590Z,100874.97
2023-03-21T04:50:29.138Z,100875.53
2023-03-21T04:52:59.840Z,100874.47
2023-03-21T04:55:31.849Z,100863.66
2023-03-21T04:58:02.770Z,100878.59
2023-03-21T05:00:37.592Z,100874.47
2023-03-21T05:03:19.616Z,100879.66
2023-03-21T05:05:52.610Z,100869.75
2023-03-21T05:08:23.513Z,100853.91
2023-03-21T05:10:54.476Z,100878.50
2023-03-21T05:13:25.834Z,100862.03
2023-03-21T05:15:56.640Z,100848.59
2023-03-21T05:18:30.544Z,100862.22
2023-03-21T05:21:10.819Z,100878.47
2023-03-21T05:23:47.610Z,100870.19
2023-03-21T05:26:20.521Z,100867.09
2023-03-21T05:29:02.768Z,100865.94
2023-03-21T05:31:33.774Z,100868.75
2023-03-21T05:34:13.218Z,100869.31
2023-03-21T05:36:44.214Z,100872.88
2023-03-21T05:39:15.765Z,100863.44
2023-03-21T05:41:54.673Z,100861.06
2023-03-21T05:44:25.340Z,100858.56
2023-03-21T05:46:55.994Z,100834.13
2023-03-21T05:49:35.556Z,100860.78
2023-03-21T05:52:06.743Z,100861.22
2023-03-21T05:54:37.441Z,100848.78
2023-03-21T05:57:09.745Z,100868.34
2023-03-21T05:59:55.674Z,100863.19
2023-03-21T06:02:26.177Z,100856.84
2023-03-21T06:05:01.424Z,100851.94
2023-03-21T06:07:32.045Z,100858.91
2023-03-21T06:10:03.321Z,100870.91
2023-03-21T06:12:34.190Z,100867.84
2023-03-21T06:15:12.862Z,100856.25
2023-03-21T06:17:56.017Z,100862.06
2023-03-21T06:20:29.288Z,100868.69
2023-03-21T06:23:07.347Z,100866.78
2023-03-21T06:25:38.543Z,100878.59
2023-03-21T06:28:09.602Z,100873.00
2023-03-21T06:30:44.065Z,100867.06
2023-03-21T06:33:19.651Z,100871.97
2023-03-21T06:35:57.177Z,100868.25
2023-03-21T06:38:28.817Z,100867.66
2023-03-21T06:40:59.449Z,100870.78
2023-03-21T06:43:35.084Z,100871.09
2023-03-21T06:46:07.411Z,100877.19
2023-03-21T06:48:39.400Z,100876.44
2023-03-21T06:51:13.378Z,100873.47
2023-03-21T06:53:51.093Z,100874.53
2023-03-21T06:56:32.807Z,100873.25
2023-03-21T06:59:06.204Z,100871.34
2023-03-21T07:01:53.436Z,100873.72
2023-03-21T07:04:24.244Z,100879.03
2023-03-21T07:06:57.658Z,100891.16
2023-03-21T07:09:29.581Z,100867.19
2023-03-21T07:12:06.290Z,100887.78
2023-03-21T07:14:49.117Z,100873.41
2023-03-21T07:17:19.623Z,100880.84
2023-03-21T07:19:50.370Z,100879.66
2023-03-21T07:22:25.346Z,100862.03
2023-03-21T07:25:04.676Z,100881.44
2023-03-21T07:27:42.353Z,100878.47
2023-03-21T07:30:14.380Z,100877.75
2023-03-21T07:32:45.721Z,100873.16
2023-03-21T07:35:21.719Z,100871.84
2023-03-21T07:37:54.821Z,100867.84
2023-03-21T07:40:25.331Z,100868.16
2023-03-21T07:42:56.060Z,100868.44
2023-03-21T07:45:36.715Z,100860.88
2023-03-21T07:48:13.061Z,100862.53
2023-03-21T07:50:43.983Z,100867.53
2023-03-21T07:53:17.272Z,100866.19
2023-03-21T07:55:47.877Z,100864.13
2023-03-21T07:58:18.629Z,100862.16
2023-03-21T08:00:49.367Z,100862.47
2023-03-21T08:03:20.418Z,100856.22
2023-03-21T08:05:50.918Z,100864.50
2023-03-21T08:08:24.122Z,100867.19
2023-03-21T08:10:54.695Z,100853.69
2023-03-21T08:13:26.154Z,100862.47
2023-03-21T08:15:56.993Z,100859.03
2023-03-21T08:18:27.598Z,100858.47
2023-03-21T08:20:59.346Z,100874.03
2023-03-21T08:23:32.695Z,100865.28
2023-03-21T08:26:03.936Z,100867.94
2023-03-21T08:28:34.750Z,100866.47
2023-03-21T08:31:10.098Z,100871.06
2023-03-21T08:33:41.345Z,100870.03
2023-03-21T08:36:13.373Z,100863.22
2023-03-21T08:38:48.584Z,100864.50
2023-03-21T08:41:22.133Z,100864.34
2023-03-21T08:43:52.646Z,100860.81
2023-03-21T08:46:23.151Z,100865.84
2023-03-21T08:48:53.786Z,100859.03
2023-03-21T08:51:24.728Z,100865.69
2023-03-21T08:53:57.785Z,100867.31
2023-03-21T08:56:28.844Z,100865.97
2023-03-21T08:58:59.269Z,100867.47
2023-03-21T09:01:30.042Z,100862.53
2023-03-21T09:04:00.692Z,100855.25
2023-03-21T09:06:31.377Z,100826.22
2023-03-21T09:09:06.016Z,100859.38
2023-03-21T09:11:36.597Z,100860.13
2023-03-21T09:14:07.680Z,100850.78
2023-03-21T09:16:38.463Z,100857.63
2023-03-21T09:19:09.449Z,100850.75
2023-03-21T09:21:40.513Z,100862.59
2023-03-21T09:24:15.932Z,100855.84
2023-03-21T09:26:46.595Z,100853.63
2023-03-21T09:29:19.140Z,100851.19
2023-03-21T09:31:49.935Z,100847.38
2023-03-21T09:34:20.769Z,100855.53
2023-03-21T09:36:54.947Z,100848.50
2023-03-21T09:39:27.821Z,100857.84
2023-03-21T09:42:15.472Z,100854.84
2023-03-21T09:44:57.720Z,100854.16
2023-03-21T09:47:34.862Z,100858.53
2023-03-21T09:50:15.287Z,100860.06
2023-03-21T09:52:51.004Z,100858.69
2023-03-21T09:55:31.118Z,100852.97
2023-03-21T09:58:08.394Z,100848.56
2023-03-21T10:00:42.231Z,100857.50
2023-03-21T10:03:24.451Z,100844.22
2023-03-21T10:05:57.550Z,100858.28
2023-03-21T10:08:31.246Z,100851.16
2023-03-21T10:11:09.666Z,100854.63
2023-03-21T10:13:47.147Z,100823.66
2023-03-21T10:16:20.267Z,100857.56
2023-03-21T10:18:51.419Z,100832.47
2023-03-21T10:21:51.399Z,100847.94
2023-03-21T10:24:19.551Z,100842.94
2023-03-21T10:26:55.546Z,100851.75
2023-03-21T10:29:30.714Z,100846.38
2023-03-21T10:32:04.521Z,100842.81
2023-03-21T10:34:41.064Z,100837.91
2023-03-21T10:37:12.087Z,100831.53
2023-03-21T10:39:45.004Z,100837.38
2023-03-21T10:42:24.054Z,100832.25
2023-03-21T10:44:57.072Z,100832.13
2023-03-21T10:47:29.533Z,100834.66
2023-03-21T10:50:08.089Z,100829.59
2023-03-21T10:52:41.498Z,100824.28
2023-03-21T10:55:23.273Z,100830.03
2023-03-21T10:58:02.170Z,100817.41
2023-03-21T11:00:38.758Z,100825.13
2023-03-21T11:03:10.927Z,100824.09
2023-03-21T11:05:44.130Z,100829.00
2023-03-21T11:08:18.019Z,100817.75
2023-03-21T11:10:57.165Z,100811.56
2023-03-21T11:13:37.356Z,100826.63
2023-03-21T11:16:11.921Z,100811.59
2023-03-21T11:18:45.238Z,100818.69
2023-03-21T11:21:17.827Z,100813.66
2023-03-21T11:23:50.518Z,100813.22
2023-03-21T11:26:24.686Z,100809.75
2023-03-21T11:28:58.816Z,100818.28
2023-03-21T11:31:41.169Z,100812.19
2023-03-21T11:34:12.783Z,100805.78
2023-03-21T11:36:43.927Z,100808.03
2023-03-21T11:39:31.222Z,100805.78
2023-03-21T11:42:02.232Z,100808.84
2023-03-21T11:44:38.257Z,100789.78
2023-03-21T11:47:11.998Z,100778.78
2023-03-21T11:49:42.672Z,100798.25
2023-03-21T11:52:23.872Z,100787.66
2023-03-21T11:55:27.460Z,100787.50
2023-03-21T11:58:17.453Z,100789.50
2023-03-21T12:00:57.394Z,100777.41
2023-03-21T12:03:57.669Z,100787.72
2023-03-21T12:06:35.700Z,100787.03
2023-03-21T12:09:20.573Z,100784.78
2023-03-21T12:12:05.326Z,100775.44
2023-03-21T12:14:41.828Z,100776.19
2023-03-21T12:17:31.150Z,100783.16
2023-03-21T12:20:43.147Z,100779.72
2023-03-21T12:23:42.744Z,100768.00
2023-03-21T12:26:23.901Z,100763.56
2023-03-21T12:29:22.567Z,100761.00
2023-03-21T12:32:03.772Z,100749.28
2023-03-21T12:34:56.382Z,100757.31
2023-03-21T12:37:36.071Z,100752.81
2023-03-21T12:40:14.853Z,100750.88
2023-03-21T12:43:06.683Z,100750.34
2023-03-21T12:45:47.176Z,100752.13
2023-03-21T12:48:25.219Z,100748.22
2023-03-21T12:51:02.897Z,100745.06
2023-03-21T12:53:43.000Z,100745.72
2023-03-21T12:56:18.400Z,100738.75
2023-03-21T12:58:52.808Z,100718.78
2023-03-21T13:01:25.391Z,100723.34
2023-03-21T13:04:10.056Z,100723.34
2023-03-21T13:06:44.339Z,100725.16
2023-03-21T13:09:28.541Z,100714.72
2023-03-21T13:12:06.610Z,100716.00
2023-03-21T13:14:42.453Z,100707.03
2023-03-21T13:17:22.071Z,100707.31
2023-03-21T13:19:57.402Z,100705.03
2023-03-21T13:22:32.664Z,100695.84
2023-03-21T13:25:08.572Z,100709.00
2023-03-21T13:27:41.550Z,100702.44
2023-03-21T13:30:26.177Z,100705.09
2023-03-21T13:33:08.656Z,100700.41
2023-03-21T13:35:42.580Z,100699.72
2023-03-21T13:38:21.427Z,100698.28
2023-03-21T13:40:54.676Z,100699.41
2023-03-21T13:43:46.786Z,100694.06
2023-03-21T13:46:52.232Z,100691.78
2023-03-21T13:49:35.640Z,100698.44
2023-03-21T13:52:29.473Z,100688.88
2023-03-21T13:55:06.481Z,100686.53
2023-03-21T13:57:42.230Z,100686.88
2023-03-21T14:00:24.416Z,100692.72
2023-03-21T14:03:03.729Z,100686.41
2023-03-21T14:05:35.559Z,100687.34
2023-03-21T14:08:15.581Z,100687.34
2023-03-21T14:10:59.919Z,100683.44
2023-03-21T14:13:35.085Z,100665.78
2023-03-21T14:16:12.890Z,100672.53
2023-03-21T14:18:54.062Z,100664.94
2023-03-21T14:21:28.173Z,100671.25
2023-03-21T14:24:00.895Z,100644.81
2023-03-21T14:26:37.280Z,100669.00
2023-03-21T14:29:25.248Z,100665.88
2023-03-21T14:32:00.216Z,100638.88
2023-03-21T14:34:34.252Z,100662.25
2023-03-21T14:37:04.787Z,100652.78
2023-03-21T14:39:36.297Z,100659.34
2023-03-21T14:42:11.473Z,100656.41
2023-03-21T14:44:54.385Z,100656.72
2023-03-21T14:47:28.380Z,100656.72
2023-03-21T14:50:01.095Z,100619.16
2023-03-21T14:52:34.689Z,100648.91
2023-03-21T14:55:14.485Z,100641.94
2023-03-21T14:57:47.974Z,100645.16
2023-03-21T15:00:26.425Z,100637.25
2023-03-21T15:02:58.183Z,100606.19
2023-03-21T15:05:32.590Z,100624.84
2023-03-21T15:08:05.270Z,100618.63
2023-03-21T15:10:36.035Z,100613.59
2023-03-21T15:13:17.971Z,100602.06
2023-03-21T15:15:50.114Z,100613.84
2023-03-21T15:18:27.951Z,100610.31
2023-03-21T15:21:01.655Z,100615.63
2023-03-21T15:23:36.765Z,100599.84
2023-03-21T15:26:08.717Z,100603.97
2023-03-21T15:28:42.041Z,100599.97
2023-03-21T15:31:22.051Z,100596.66
2023-03-21T15:33:54.990Z,100582.53
2023-03-21T15:36:29.671Z,100584.56
2023-03-21T15:39:03.982Z,100579.53
2023-03-21T15:41:35.964Z,100577.50
2023-03-21T15:44:17.775Z,100582.31
2023-03-21T15:46:50.619Z,100580.59
2023-03-21T15:49:25.259Z,100572.81
2023-03-21T15:52:00.472Z,100575.06
2023-03-21T15:54:34.234Z,100569.00
2023-03-21T15:57:09.659Z,100558.34
2023-03-21T15:59:47.956Z,100558.34
2023-03-21T16:02:21.310Z,100547.91
2023-03-21T16:04:59.733Z,100547.00
2023-03-21T16:07:31.274Z,100542.91
2023-03-21T16:10:04.699Z,100531.63
2023-03-21T16:12:36.065Z,100531.06
2023-03-21T16:15:10.202Z,100537.31
2023-03-21T16:17:42.012Z,100525.63
2023-03-21T16:20:20.289Z,100532.03
2023-03-21T16:22:51.610Z,100492.47
2023-03-21T16:25:22.269Z,100490.72
2023-03-21T16:27:53.295Z,100499.81
2023-03-21T16:30:27.502Z,100521.53
2023-03-21T16:32:57.749Z,100512.94
2023-03-21T16:35:28.871Z,100519.03
2023-03-21T16:37:59.526Z,100510.84
2023-03-21T16:40:34.738Z,100519.31
2023-03-21T16:43:06.717Z,100526.50
2023-03-21T16:45:40.511Z,100498.31
2023-03-21T16:48:16.699Z,100506.16
2023-03-21T16:51:01.171Z,100523.72
2023-03-21T16:53:34.914Z,100525.50
2023-03-21T16:56:06.550Z,100517.53
2023-03-21T16:58:37.767Z,100529.03
2023-03-21T17:01:15.736Z,100526.66
2023-03-21T17:03:46.476Z,100522.63
2023-03-21T17:06:18.968Z,100528.41
2023-03-21T17:08:49.648Z,100508.38
2023-03-21T17:11:22.309Z,100521.53
2023-03-21T17:13:54.938Z,100523.81
2023-03-21T17:16:28.817Z,100514.63
2023-03-21T17:19:00.522Z,100521.66
2023-03-21T17:21:32.938Z,100521.66
2023-03-21T17:24:03.874Z,100520.31
2023-03-21T17:26:34.476Z,100501.25
2023-03-21T17:29:05.681Z,100505.69
2023-03-21T17:31:40.204Z,100515.75
2023-03-21T17:34:11.218Z,100506.88
2023-03-21T17:36:44.318Z,100516.25
2023-03-21T17:39:19.738Z,100515.34
2023-03-21T17:41:50.298Z,100507.59
2023-03-21T17:44:21.747Z,100523.00
2023-03-21T17:46:56.410Z,100494.66
2023-03-21T17:49:27.884Z,100521.56
2023-03-21T17:51:58.550Z,100523.31
2023-03-21T17:54:29.487Z,100522.31
2023-03-21T17:57:00.105Z,100520.94
2023-03-21T17:59:31.202Z,100512.50
2023-03-21T18:02:04.501Z,100510.31
2023-03-21T18:04:37.975Z,100529.03
2023-03-21T18:07:13.839Z,100522.34
2023-03-21T18:09:46.015Z,100526.19
2023-03-21T18:12:17.490Z,100518.22
2023-03-21T18:14:48.149Z,100526.38
2023-03-21T18:17:21.648Z,100518.91
2023-03-21T18:19:52.185Z,100536.81
2023-03-21T18:22:22.891Z,100525.44
2023-03-21T18:24:53.549Z,100534.19
2023-03-21T18:27:24.337Z,100529.66
2023-03-21T18:32:49.686Z,100541.97
2023-03-21T18:35:24.727Z,100542.44
2023-03-21T18:37:56.413Z,100532.56
2023-03-21T18:40:27.670Z,100521.94
2023-03-21T18:43:50.042Z,100542.09
2023-03-21T18:45:49.577Z,100561.81
2023-03-21T18:48:23.206Z,100565.97
2023-03-21T18:50:54.321Z,100555.59
2023-03-21T18:53:25.130Z,100558.78
2023-03-21T18:55:56.629Z,100563.34
2023-03-21T18:58:29.602Z,100564.25
2023-03-21T19:01:02.743Z,100564.66
2023-03-21T19:03:38.190Z,100549.06
2023-03-21T19:06:09.473Z,100558.13
2023-03-21T19:08:41.769Z,100526.94
2023-03-21T19:11:12.920Z,100529.34
2023-03-21T19:13:44.513Z,100544.34
2023-03-21T19:16:17.985Z,100539.69
2023-03-21T19:18:56.689Z,100534.19
2023-03-21T19:21:29.008Z,100543.06
2023-03-21T19:24:26.404Z,100540.94
2023-03-21T19:26:55.152Z,100535.91
2023-03-21T19:29:26.724Z,100549.53
2023-03-21T19:32:01.040Z,100516.31
2023-03-21T19:34:35.286Z,100545.50
2023-03-21T19:37:06.728Z,100550.53
2023-03-21T19:39:39.345Z,100547.63
2023-03-21T19:42:16.985Z,100546.44
2023-03-21T19:44:48.491Z,100549.94
2023-03-21T19:47:22.300Z,100533.09
2023-03-21T19:52:48.515Z,100543.44
2023-03-21T19:55:19.336Z,100549.97
2023-03-21T19:57:51.043Z,100530.28
2023-03-21T20:00:24.103Z,100541.81
2023-03-21T20:02:54.918Z,100535.47
2023-03-21T20:05:28.516Z,100537.13
2023-03-21T20:08:01.214Z,100553.00
2023-03-21T20:10:31.935Z,100533.47
2023-03-21T20:13:03.153Z,100521.94
2023-03-21T20:15:44.768Z,100543.09
2023-03-21T20:18:18.759Z,100495.78
2023-03-21T20:20:53.291Z,100531.25
2023-03-21T20:23:24.163Z,100528.03
2023-03-21T20:25:55.670Z,100504.41
2023-03-21T20:28:28.586Z,100537.19
2023-03-21T20:31:00.824Z,100529.66
2023-03-21T20:33:32.110Z,100525.13
2023-03-21T20:36:37.374Z,100533.13
2023-03-21T20:38:58.448Z,100523.69
2023-03-21T20:41:29.215Z,100497.38
2023-03-21T20:44:41.656Z,100541.88
2023-03-21T20:46:51.407Z,100537.31
2023-03-21T20:49:23.202Z,100519.41
2023-03-21T20:54:48.455Z,100528.75
2023-03-21T20:57:20.116Z,100519.28
2023-03-21T20:59:51.082Z,100519.13
2023-03-21T21:02:22.704Z,100515.47
2023-03-21T21:07:50.821Z,100510.59
2023-03-21T21:10:22.434Z,100511.63
2023-03-21T21:12:53.637Z,100511.03
2023-03-21T21:15:24.622Z,100485.78
2023-03-21T21:18:06.548Z,100519.59
2023-03-21T21:20:38.777Z,100520.03
2023-03-21T21:23:13.652Z,100512.78
2023-03-21T21:25:44.998Z,100505.09
2023-03-21T21:28:15.811Z,100509.81
2023-03-21T21:30:46.582Z,100509.81
2023-03-21T21:33:18.063Z,100493.53
2023-03-21T21:35:49.710Z,100499.13
2023-03-21T21:38:22.977Z,100497.97
2023-03-21T21:40:54.485Z,100489.22
2023-03-21T21:43:24.979Z,100497.34
2023-03-21T21:45:56.054Z,100503.53
2023-03-21T21:48:27.270Z,100497.59
2023-03-21T21:50:59.262Z,100485.97
2023-03-21T21:53:33.804Z,100496.03
2023-03-21T21:56:04.293Z,100483.59
2023-03-21T21:58:38.724Z,100496.03
2023-03-21T22:01:10.117Z,100485.09
2023-03-21T22:03:45.998Z,100472.22
2023-03-21T22:06:17.635Z,100483.13
2023-03-21T22:08:52.058Z,100485.91
2023-03-21T22:11:22.978Z,100487.19
2023-03-21T22:13:53.739Z,100491.47
2023-03-21T22:16:24.609Z,100487.06
2023-03-21T22:18:55.389Z,100478.16
2023-03-21T22:21:25.893Z,100487.00
2023-03-21T22:23:59.014Z,100489.06
2023-03-21T22:26:29.677Z,100484.47
2023-03-21T22:29:00.657Z,100471.53
2023-03-21T22:31:32.323Z,100475.41
2023-03-21T22:34:02.872Z,100473.09
2023-03-21T22:36:34.629Z,100464.25
2023-03-21T22:39:07.854Z,100469.25
2023-03-21T22:41:38.316Z,100467.19
2023-03-21T22:44:08.853Z,100466.03
2023-03-21T22:46:39.608Z,100465.91
2023-03-21T22:49:10.294Z,100465.47
2023-03-21T22:51:41.592Z,100460.59
2023-03-21T22:54:15.130Z,100455.09
2023-03-21T22:56:45.603Z,100457.44
2023-03-21T22:59:16.453Z,100458.19
2023-03-21T23:01:47.342Z,100469.41
2023-03-21T23:04:18.199Z,100469.00
2023-03-21T23:06:49.130Z,100470.03
2023-03-21T23:09:23.799Z,100449.72
2023-03-21T23:11:54.300Z,100469.34
2023-03-21T23:14:25.641Z,100469.66
2023-03-21T23:17:00.438Z,100465.53
2023-03-21T23:19:32.324Z,100454.31
2023-03-21T23:22:02.969Z,100463.50
2023-03-21T23:24:36.127Z,100467.78
2023-03-21T23:27:06.820Z,100454.63
2023-03-21T23:29:37.427Z,100470.44
2023-03-21T23:32:08.294Z,100466.28
2023-03-21T23:34:38.833Z,100472.50
2023-03-21T23:37:09.662Z,100433.66
2023-03-21T23:39:45.366Z,100472.03
2023-03-21T23:42:16.240Z,100472.66
2023-03-21T23:44:46.675Z,100466.75
2023-03-21T23:47:18.218Z,100464.50
2023-03-21T23:49:50.239Z,100450.06
2023-03-21T23:52:21.494Z,100457.28
2023-03-21T23:54:54.644Z,100455.66
2023-03-21T23:57:25.367Z,100442.53
2023-03-21T23:59:57.795Z,100441.44
